West Milwaukee, Wisconsin
Current Conditions -  °F | °C
As of 4:52 PM on Saturday 25 Oct 2014 (Local Time) from KMKE Reporting Station
Few Clouds Few Clouds  
Wind Chill: 68°   Ceiling: Unl
Heat Index: 68°   Visibility: 10mi
Dew Point: 25°   Wind: 17mph
Humidity: 20%   Direction: 290°WNW
Pressure: 29.88"   Gusts: 26mph
Location:  42.9995°N, 87.9467°W
Report Text: KMKE 252152Z 29015G23KT 10SM FEW200 20/M04 A2988 RMK AO2 SLP118 T02001039
Loading
Personal Weather Stations






























Interactive Weather Map
Tropical Storm Tracking
New forecast layout! Learn more

10-Day Weather Forecast

Advertisements
Track Severe Weather on mobile